Kuujjuaq Airport, Quebec

Past 24 Hour Conditions

This table is a summary of hourly weather conditions for the past 24 hours. This summary includes the following parameters: temperature, humidity, dew point, wind speed and direction, air pressure, visibility and/or wind chill and humidex.
Date / Time
(EDT)
Conditions Temp (°C) Humidity (%) Dew Point (°C) Wind (km/h) Pressure (kPa) Visibility (km)
20 August 2014
12:00 Partly Cloudy 20   65 13 E 9 102.3 24
11:00 Partly Cloudy 18 73 13 ESE 5 102.3 24
10:00 Mostly Cloudy 16 98 15 SE 6 102.3 24
9:00 Fog 12 98 12 E 4 102.3 0.8
8:00 Fog 11 98 11 N 2 102.2 0.2
7:00 Fog 11 98 11 NE 5 102.2 0.2
6:00 Fog 10 98 10 NNW 4 102.2 0.2
5:00 Fog 10 98 9 NNW 8 102.1 0.2
4:00 Mist 9   98 8 NNW 10 102.0 6
3:00 Mist 10 98 10 NNW 8 102.0 10
2:00 Fog 10 98 10 NW 8 101.9 24
1:00 Fog 11 98 11 NNW 5 101.9 24
00:00 Clear 11 97 11 NW 7 101.9 24
19 August 2014
23:00 Clear 11 96 10 NNW 10 101.8 24
22:00 Partly Cloudy 12 92 11 N 5 101.8 24
21:00 Mainly Clear 14 87 11 NNE 9 101.8 24
20:00 Partly Cloudy 16 82 13 ENE 8 101.8 24
19:00 Mostly Cloudy 17 77 13 ENE 10 101.7 24
18:00 Mostly Cloudy 19 70 14 NNE 13 101.7 24
17:00 Mostly Cloudy 19 72 14 NNE 7 101.6 24
16:00 Mostly Cloudy 20   67 14 SE 5 101.6 24
15:00 Mostly Cloudy 20   66 14 N 2 101.6 24
14:00 Mostly Cloudy 20   71 14 SE 5 101.6 24
13:00 Partly Cloudy 18 74 14 ESE 13 101.5 24
12:00 Partly Cloudy 17 77 13 ESE 8 101.6 24
N/A
Not available
 ↑ 
Highest temperature
 ↓ 
Lowest temperature

If you require additional historical weather information, please visit Climate Data Online.